Observations for BIRMINGHAM AIRPORT, United Kingdom (EGBB)

EGBB 260450Z 32004KT 5000 HZ NSC 16/14 Q1018
EGBB 260420Z 32004KT 6000 NSC 16/15 Q1018   
EGBB 260350Z 31005KT 6000 NSC 17/15 Q1019   
EGBB 260320Z 31006KT 7000 NSC 17/15 Q1019   
EGBB 260250Z 32005KT 7000 NSC 17/15 Q1019   
EGBB 260220Z VRB03KT 8000 NSC 17/15 Q1018   
EGBB 260150Z 33003KT CAVOK 17/15 Q1018  
EGBB 260120Z 36003KT CAVOK 17/15 Q1018  
EGBB 260050Z 32005KT CAVOK 19/16 Q1019  
EGBB 260020Z 30004KT CAVOK 19/16 Q1019  
EGBB 252350Z 29006KT CAVOK 19/16 Q1019  
EGBB 252320Z 32005KT CAVOK 20/16 Q1019  
EGBB 252250Z VRB03KT CAVOK 21/16 Q1019  
EGBB 252220Z VRB03KT CAVOK 21/16 Q1019  
EGBB 252150Z 24005KT CAVOK 22/17 Q1018  
EGBB 252120Z 23005KT 180V270 CAVOK 22/17 Q1018  
EGBB 252050Z 21005KT CAVOK 23/16 Q1018  
EGBB 252020Z 19005KT CAVOK 23/16 Q1018  
EGBB 251950Z 19004KT CAVOK 23/16 Q1018  
EGBB 251920Z 21003KT CAVOK 25/16 Q1018  
EGBB 251850Z 25003KT CAVOK 27/15 Q1018  
EGBB 251820Z 24003KT CAVOK 28/15 Q1017  
EGBB 251750Z 26004KT CAVOK 29/15 Q1017  
EGBB 251720Z 23004KT 170V260 CAVOK 30/14 Q1017  
EGBB 251650Z 21004KT 170V250 CAVOK 30/14 Q1017  
EGBB 251620Z 18005KT 150V240 CAVOK 30/14 Q1017  
EGBB 251550Z 18006KT CAVOK 30/14 Q1017  
EGBB 251520Z 19007KT 160V230 CAVOK 30/13 Q1017  
EGBB 251450Z 16007KT 140V210 CAVOK 30/14 Q1017  
EGBB 251420Z 16007KT 140V200 CAVOK 30/14 Q1017  
EGBB 251350Z 18007KT 150V220 CAVOK 29/13 Q1017  
EGBB 251320Z 19007KT CAVOK 29/13 Q1017  
EGBB 251250Z 16007KT CAVOK 29/14 Q1017  
EGBB 251220Z 16009KT 110V190 CAVOK 29/13 Q1017  
EGBB 251150Z 13007KT CAVOK 28/14 Q1017  
EGBB 251120Z 13007KT CAVOK 27/14 Q1018  
EGBB 251050Z 15006KT 110V190 CAVOK 26/14 Q1018  
EGBB 251020Z 12007KT CAVOK 26/14 Q1018  
EGBB 250950Z 12005KT CAVOK 24/14 Q1018  
EGBB 250920Z 12006KT CAVOK 23/14 Q1018  
EGBB 250850Z 13008KT CAVOK 23/14 Q1018  
EGBB 250820Z 13005KT CAVOK 24/14 Q1018  
EGBB 250750Z 10004KT 070V140 CAVOK 22/14 Q1017  
EGBB 250720Z 11005KT 080V150 CAVOK 20/13 Q1017  
EGBB 250650Z VRB01KT CAVOK 19/13 Q1017  
EGBB 250620Z 13004KT 070V160 CAVOK 17/13 Q1017  
EGBB 250550Z VRB02KT CAVOK 16/12 Q1017  
EGBB 250520Z VRB01KT CAVOK 15/12 Q1017  
EGBB 250450Z 15002KT CAVOK 15/11 Q1017  
EGBB 250420Z VRB02KT CAVOK 15/12 Q1017